createdAt,value
2022-12-01T00:01:20.815Z,26.42
2022-12-01T00:03:48.600Z,27.10
2022-12-01T00:06:18.778Z,23.00
2022-12-01T00:09:06.497Z,24.20
2022-12-01T00:11:35.549Z,22.45
2022-12-01T00:14:03.502Z,24.70
2022-12-01T00:16:31.325Z,20.70
2022-12-01T00:18:58.911Z,20.42
2022-12-01T00:21:26.870Z,23.08
2022-12-01T00:23:56.429Z,21.73
2022-12-01T00:26:26.843Z,23.00
2022-12-01T00:28:56.792Z,21.75
2022-12-01T00:31:24.717Z,23.50
2022-12-01T00:33:52.169Z,21.02
2022-12-01T00:36:19.921Z,23.13
2022-12-01T00:38:47.118Z,18.42
2022-12-01T00:41:14.459Z,22.98
2022-12-01T00:43:41.814Z,21.38
2022-12-01T00:46:09.272Z,19.52
2022-12-01T00:48:36.594Z,21.15
2022-12-01T00:51:04.494Z,25.08
2022-12-01T00:53:31.804Z,25.25
2022-12-01T00:55:59.148Z,23.52
2022-12-01T00:58:26.388Z,22.85
2022-12-01T01:00:59.068Z,20.17
2022-12-01T01:03:27.679Z,22.20
2022-12-01T01:05:55.120Z,21.58
2022-12-01T01:08:22.488Z,22.35
2022-12-01T01:10:49.895Z,23.05
2022-12-01T01:13:17.273Z,20.13
2022-12-01T01:15:44.524Z,17.98
2022-12-01T01:18:12.716Z,19.77
2022-12-01T01:20:39.910Z,17.75
2022-12-01T01:23:07.288Z,19.90
2022-12-01T01:25:34.624Z,22.00
2022-12-01T01:28:01.923Z,20.83
2022-12-01T01:30:29.165Z,22.13
2022-12-01T01:32:56.540Z,21.98
2022-12-01T01:35:23.825Z,22.23
2022-12-01T01:37:51.843Z,20.88
2022-12-01T01:40:19.211Z,23.25
2022-12-01T01:42:46.447Z,23.10
2022-12-01T01:45:25.968Z,23.80
2022-12-01T01:47:55.541Z,20.13
2022-12-01T01:50:25.630Z,20.60
2022-12-01T01:53:02.724Z,21.05
2022-12-01T01:55:33.787Z,18.77
2022-12-01T01:58:04.476Z,22.60
2022-12-01T02:00:31.751Z,22.45
2022-12-01T02:03:00.219Z,24.48
2022-12-01T02:05:30.905Z,19.25
2022-12-01T02:08:00.154Z,19.70
2022-12-01T02:11:01.641Z,19.73
2022-12-01T02:13:45.105Z,23.23
2022-12-01T02:16:36.680Z,22.65
2022-12-01T02:19:52.048Z,25.52
2022-12-01T02:22:32.007Z,24.67
2022-12-01T02:25:11.548Z,24.52
2022-12-01T02:27:44.700Z,25.27
2022-12-01T02:30:17.915Z,23.02
2022-12-01T02:32:52.166Z,24.77
2022-12-01T02:35:47.732Z,24.35
2022-12-01T02:38:53.437Z,28.63
2022-12-01T02:41:30.436Z,25.85
2022-12-01T02:44:08.911Z,27.08
2022-12-01T02:46:44.371Z,26.77
2022-12-01T02:49:17.655Z,27.25
2022-12-01T02:51:45.959Z,27.17
2022-12-01T02:54:15.080Z,23.55
2022-12-01T02:56:45.054Z,25.25
2022-12-01T02:59:15.087Z,26.30
2022-12-01T03:01:46.012Z,25.98
2022-12-01T03:04:38.982Z,22.58
2022-12-01T03:07:44.067Z,25.25
2022-12-01T03:10:42.562Z,27.48
2022-12-01T03:13:17.924Z,23.67
2022-12-01T03:16:06.228Z,25.77
2022-12-01T03:18:45.944Z,23.42
2022-12-01T03:21:23.131Z,26.90
2022-12-01T03:24:01.145Z,25.38
2022-12-01T03:26:32.595Z,24.08
2022-12-01T03:29:08.198Z,25.98
2022-12-01T03:31:42.550Z,25.73
2022-12-01T03:34:23.196Z,26.00
2022-12-01T03:36:57.874Z,22.15
2022-12-01T03:39:32.302Z,21.58
2022-12-01T03:42:08.758Z,22.80
2022-12-01T03:44:45.476Z,19.17
2022-12-01T03:49:43.435Z,22.38
2022-12-01T03:52:23.554Z,21.88
2022-12-01T03:55:09.365Z,17.90
2022-12-01T03:57:44.098Z,22.23
2022-12-01T04:00:13.530Z,22.80
2022-12-01T04:02:41.396Z,21.48
2022-12-01T04:05:11.807Z,20.35
2022-12-01T04:07:39.762Z,21.00
2022-12-01T04:10:08.006Z,23.98
2022-12-01T04:12:35.672Z,23.15
2022-12-01T04:15:10.149Z,22.95
2022-12-01T04:17:37.537Z,20.80
2022-12-01T04:20:06.930Z,23.17
2022-12-01T04:22:34.330Z,24.60
2022-12-01T04:25:01.729Z,21.80
2022-12-01T04:27:29.075Z,21.50
2022-12-01T04:29:56.214Z,22.15
2022-12-01T04:32:23.628Z,22.65
2022-12-01T04:34:51.003Z,22.00
2022-12-01T04:37:19.032Z,19.60
2022-12-01T04:39:46.538Z,21.80
2022-12-01T04:42:13.920Z,21.77
2022-12-01T04:44:41.078Z,20.13
2022-12-01T04:47:08.504Z,22.42
2022-12-01T04:49:37.158Z,23.98
2022-12-01T04:52:04.691Z,23.63
2022-12-01T04:54:32.014Z,23.67
2022-12-01T04:56:59.149Z,25.73
2022-12-01T04:59:26.445Z,20.30
2022-12-01T05:01:53.765Z,18.85
2022-12-01T05:04:21.241Z,18.65
2022-12-01T05:06:48.655Z,19.48
2022-12-01T05:09:17.705Z,20.98
2022-12-01T05:11:45.391Z,18.83
2022-12-01T05:14:12.952Z,19.95
2022-12-01T05:16:40.362Z,20.10
2022-12-01T05:19:26.279Z,18.25
2022-12-01T05:21:54.014Z,21.48
2022-12-01T05:24:21.515Z,14.93
2022-12-01T05:26:49.084Z,18.10
2022-12-01T05:29:16.445Z,16.95
2022-12-01T05:31:45.539Z,15.80
2022-12-01T05:34:13.246Z,17.48
2022-12-01T05:36:40.473Z,18.33
2022-12-01T05:39:07.807Z,18.02
2022-12-01T05:41:35.190Z,16.63
2022-12-01T05:44:02.641Z,20.73
2022-12-01T05:46:29.795Z,19.33
2022-12-01T05:48:57.206Z,19.35
2022-12-01T05:51:24.380Z,18.60
2022-12-01T05:53:51.590Z,19.40
2022-12-01T05:56:18.827Z,17.58
2022-12-01T05:58:46.132Z,17.77
2022-12-01T06:01:13.467Z,19.35
2022-12-01T06:03:40.776Z,18.60
2022-12-01T06:06:08.119Z,20.48
2022-12-01T06:08:35.503Z,19.88
2022-12-01T06:11:03.116Z,19.65
2022-12-01T06:13:30.323Z,18.20
2022-12-01T06:16:03.164Z,16.90
2022-12-01T06:18:33.437Z,18.67
2022-12-01T06:21:01.467Z,18.42
2022-12-01T06:23:30.508Z,18.15
2022-12-01T06:25:58.812Z,19.00
2022-12-01T06:28:26.065Z,17.33
2022-12-01T06:30:56.634Z,16.55
2022-12-01T06:33:28.512Z,18.58
2022-12-01T06:36:00.299Z,16.67
2022-12-01T06:38:31.015Z,18.17
2022-12-01T06:40:58.332Z,18.92
2022-12-01T06:43:25.559Z,18.67
2022-12-01T06:45:56.439Z,20.27
2022-12-01T06:48:28.354Z,18.65
2022-12-01T06:51:00.292Z,17.98
2022-12-01T06:53:28.719Z,16.38
2022-12-01T06:56:04.414Z,17.45
2022-12-01T06:58:32.324Z,16.65
2022-12-01T07:01:00.292Z,16.73
2022-12-01T07:03:27.569Z,18.98
2022-12-01T07:05:59.404Z,18.70
2022-12-01T07:08:27.570Z,18.63
2022-12-01T07:11:07.572Z,16.08
2022-12-01T07:13:35.462Z,16.67
2022-12-01T07:16:03.560Z,16.60
2022-12-01T07:18:32.244Z,16.58
2022-12-01T07:21:01.403Z,18.98
2022-12-01T07:23:28.783Z,18.33
2022-12-01T07:26:06.772Z,16.55
2022-12-01T07:28:34.124Z,16.92
2022-12-01T07:31:09.619Z,17.65
2022-12-01T07:33:37.115Z,20.05
2022-12-01T07:36:05.351Z,18.35
2022-12-01T07:38:34.547Z,21.25
2022-12-01T07:41:11.109Z,20.60
2022-12-01T07:43:39.340Z,24.05
2022-12-01T07:46:22.589Z,23.02
2022-12-01T07:48:51.961Z,19.55
2022-12-01T07:51:19.983Z,17.20
2022-12-01T07:53:49.343Z,15.00
2022-12-01T07:58:44.300Z,17.00
2022-12-01T08:01:13.189Z,16.13
2022-12-01T08:03:41.258Z,22.50
2022-12-01T08:33:20.843Z,22.50
2022-12-01T08:56:19.630Z,19.42
2022-12-01T08:58:47.345Z,19.52
2022-12-01T09:01:16.813Z,25.02
2022-12-01T09:03:44.643Z,22.67
2022-12-01T09:06:15.346Z,29.65
2022-12-01T09:08:43.550Z,27.48
2022-12-01T09:11:14.135Z,27.67
2022-12-01T09:13:43.300Z,27.35
2022-12-01T09:16:13.304Z,26.63
2022-12-01T09:18:42.396Z,16.08
2022-12-01T09:21:14.501Z,19.30
2022-12-01T09:23:41.797Z,19.75
2022-12-01T09:26:13.411Z,18.73
2022-12-01T09:28:41.219Z,22.85
2022-12-01T09:31:11.618Z,20.55
2022-12-01T09:33:39.696Z,19.58
2022-12-01T09:36:08.626Z,15.48
2022-12-01T09:38:37.779Z,11.95
2022-12-01T09:41:18.078Z,12.63
2022-12-01T09:44:15.675Z,13.73
2022-12-01T09:46:49.265Z,13.98
2022-12-01T09:49:39.492Z,12.70
2022-12-01T09:52:12.104Z,22.33
2022-12-01T09:54:39.690Z,12.80
2022-12-01T09:57:16.404Z,10.90
2022-12-01T09:59:45.489Z,14.27
2022-12-01T10:02:51.028Z,15.00
2022-12-01T10:05:24.604Z,14.48
2022-12-01T10:08:15.794Z,14.05
2022-12-01T10:10:47.106Z,10.50
2022-12-01T10:13:26.275Z,12.18
2022-12-01T10:15:53.512Z,15.88
2022-12-01T10:18:58.412Z,13.85
2022-12-01T10:21:38.172Z,15.80
2022-12-01T10:24:24.911Z,18.40
2022-12-01T10:26:59.516Z,17.20
2022-12-01T10:29:39.018Z,15.55
2022-12-01T10:32:13.807Z,15.60
2022-12-01T10:34:43.143Z,15.82
2022-12-01T10:37:18.479Z,11.75
2022-12-01T10:39:49.449Z,13.55
2022-12-01T10:42:50.105Z,14.97
2022-12-01T10:45:24.635Z,14.50
2022-12-01T10:48:15.520Z,11.93
2022-12-01T14:36:49.232Z,12.40
2022-12-01T14:39:40.735Z,17.13
2022-12-01T14:42:11.030Z,14.45
2022-12-01T14:44:44.381Z,15.07
2022-12-01T14:47:11.863Z,19.65
2022-12-01T14:50:02.876Z,14.88
2022-12-01T14:52:35.790Z,9.18
2022-12-01T14:55:07.444Z,11.23
2022-12-01T14:57:39.670Z,11.20
2022-12-01T15:00:13.596Z,12.05
2022-12-01T15:02:55.951Z,14.57
2022-12-01T22:36:43.324Z,21.45
2022-12-01T22:39:34.054Z,13.93
2022-12-01T22:42:08.076Z,24.02
2022-12-01T22:44:35.462Z,13.48
